Time;durP1;ratioP1;P1;durP2;ratioP2;P2;SDS_P1;SDS_P2;PMS_P1;PMS_P2;Temp;Humidity;BMP_temperature;BMP_pressure;BME280_temperature;BME280_humidity;BME280_pressure;Samples;Min_cycle;Max_cycle;Signal;HPM_P1;HPM_P2
2021/12/15 00:01:38;;;;;;;30.52;18.25;;;5.30;84.60;;;3.16;100.00;97253.00;5009199;28;20084;-64
2021/12/15 00:04:04;;;;;;;30.13;17.67;;;5.30;84.80;;;3.16;100.00;97258.22;4993082;28;20026;-63
2021/12/15 00:06:30;;;;;;;29.85;16.73;;;5.30;84.70;;;3.17;100.00;97250.31;5009562;28;20045;-63
2021/12/15 00:08:58;;;;;;;31.40;17.25;;;5.40;84.90;;;3.18;100.00;97246.78;5008732;28;20544;-63
2021/12/15 00:11:32;;;;;;;31.58;18.10;;;5.40;84.80;;;3.18;100.00;97246.78;4992899;28;20038;-63
2021/12/15 00:13:58;;;;;;;33.83;18.75;;;5.30;84.70;;;3.20;100.00;97257.06;5008469;28;20046;-63
2021/12/15 00:16:23;;;;;;;32.00;18.02;;;5.40;84.70;;;3.21;100.00;97256.94;5009581;28;20045;-63
2021/12/15 00:18:49;;;;;;;32.05;18.52;;;5.40;84.80;;;3.22;100.00;97257.78;5009298;28;20058;-63
2021/12/15 00:21:18;;;;;;;32.17;18.05;;;5.40;84.70;;;3.23;100.00;97254.22;5009297;28;20073;-63
2021/12/15 00:23:44;;;;;;;35.45;18.00;;;5.40;84.80;;;3.24;100.00;97255.88;5008484;28;20136;-64
2021/12/15 00:26:10;;;;;;;32.00;18.08;;;5.40;84.50;;;3.24;100.00;97250.69;4993199;28;20546;-63
2021/12/15 00:28:36;;;;;;;30.05;18.50;;;5.40;84.40;;;3.25;100.00;97270.53;4993118;28;20130;-64
2021/12/15 00:31:02;;;;;;;31.83;17.73;;;5.40;84.30;;;3.27;100.00;97266.06;4976444;23;20065;-64
2021/12/15 00:33:28;;;;;;;32.90;16.75;;;5.40;84.40;;;3.28;100.00;97262.50;4906352;28;20348;-64
2021/12/15 00:35:55;;;;;;;32.13;17.70;;;5.40;84.40;;;3.29;100.00;97264.16;4931242;28;20101;-64
2021/12/15 00:38:22;;;;;;;31.35;17.42;;;5.50;84.50;;;3.28;100.00;97262.50;4951199;28;20078;-64
2021/12/15 00:40:48;;;;;;;31.52;17.15;;;5.50;84.50;;;3.30;100.00;97263.22;4973349;28;20026;-65
2021/12/15 00:43:14;;;;;;;27.90;16.75;;;5.50;84.40;;;3.32;100.00;97261.31;4969853;28;20030;-65
2021/12/15 00:45:39;;;;;;;33.03;17.20;;;5.50;84.40;;;3.33;100.00;97265.59;5000721;28;20061;-65
2021/12/15 00:48:05;;;;;;;30.25;16.92;;;5.50;84.20;;;3.32;100.00;97264.75;4954124;28;20034;-65
2021/12/15 00:50:34;;;;;;;32.78;19.00;;;5.50;84.20;;;3.34;100.00;97275.88;4986202;28;20034;-65
2021/12/15 00:53:00;;;;;;;33.17;18.23;;;5.50;84.30;;;3.34;100.00;97280.25;4979458;28;20054;-66
2021/12/15 00:55:27;;;;;;;32.83;17.77;;;5.50;84.30;;;3.35;100.00;97274.09;4974370;28;20038;-65
2021/12/15 00:57:53;;;;;;;31.77;17.75;;;5.50;84.50;;;3.34;100.00;97275.03;4969058;28;20257;-65
2021/12/15 01:00:27;;;;;;;31.80;18.10;;;5.50;84.30;;;3.34;100.00;97272.44;4982310;28;20048;-65
2021/12/15 01:02:54;;;;;;;34.50;18.45;;;5.50;84.60;;;3.33;100.00;97276.81;4988213;28;20092;-66
2021/12/15 01:05:22;;;;;;;35.13;18.42;;;5.50;84.40;;;3.35;100.00;97279.28;4984811;28;20528;-65
2021/12/15 01:07:48;;;;;;;34.17;18.25;;;5.50;84.40;;;3.34;100.00;97275.88;4956215;28;20031;-65
2021/12/15 01:10:18;;;;;;;36.03;18.90;;;5.60;84.60;;;3.36;100.00;97278.34;4969766;28;20807;-64
2021/12/15 01:14:31;;;;;;;35.47;18.88;;;5.60;84.50;;;3.36;100.00;97286.97;4964085;28;20211;-65
2021/12/15 01:21:11;;;;;;;34.35;17.42;;;5.60;84.40;;;3.38;100.00;97279.06;4963969;28;20050;-66
2021/12/15 01:23:37;;;;;;;33.08;18.40;;;5.60;84.40;;;3.39;100.00;97285.91;4968469;28;20154;-66
2021/12/15 01:26:09;;;;;;;32.88;18.88;;;5.60;84.40;;;3.40;100.00;97291.97;4971423;28;20039;-63
2021/12/15 01:28:35;;;;;;;34.42;17.77;;;5.60;84.30;;;3.40;100.00;97286.78;4969155;28;20026;-65
2021/12/15 01:31:01;;;;;;;32.38;17.95;;;5.60;84.50;;;3.40;100.00;97290.22;4978158;28;20113;-64
2021/12/15 01:33:27;;;;;;;33.40;17.88;;;5.60;84.50;;;3.39;100.00;97285.91;4986540;28;20141;-64
2021/12/15 01:35:54;;;;;;;34.75;18.52;;;5.60;84.40;;;3.40;100.00;97292.81;4961265;28;20066;-66
2021/12/15 01:38:21;;;;;;;31.30;18.25;;;5.60;84.20;;;3.41;100.00;97288.44;4953269;28;20306;-64
2021/12/15 01:40:47;;;;;;;34.80;18.83;;;5.60;84.30;;;3.41;100.00;97289.25;4937212;28;20070;-67
2021/12/15 01:49:10;;;;;;;31.88;17.98;;;5.60;84.40;;;3.39;100.00;97291.13;4977539;28;20436;-64
2021/12/15 01:51:36;;;;;;;36.15;19.08;;;5.50;84.40;;;3.39;100.00;97291.13;4956051;28;20036;-65
2021/12/15 01:54:02;;;;;;;38.03;20.13;;;5.60;84.50;;;3.40;100.00;97294.59;4986234;28;21562;-65
2021/12/15 01:56:28;;;;;;;36.47;19.80;;;5.60;84.60;;;3.39;100.00;97288.53;4969856;28;20402;-64
2021/12/15 01:58:54;;;;;;;36.92;19.35;;;5.50;84.40;;;3.38;100.00;97284.25;4967595;28;20031;-64
2021/12/15 02:01:20;;;;;;;37.67;19.83;;;5.50;84.70;;;3.41;100.00;97293.63;4962298;28;20145;-63
2021/12/15 02:03:46;;;;;;;36.00;18.45;;;5.60;84.60;;;3.40;100.00;97286.78;4969243;28;20054;-64
2021/12/15 02:06:12;;;;;;;39.72;19.60;;;5.60;84.50;;;3.39;100.00;97291.13;4980864;28;20117;-65
2021/12/15 02:08:38;;;;;;;40.08;19.67;;;5.60;84.70;;;3.40;100.00;97287.59;4966789;28;20478;-64
2021/12/15 02:11:04;;;;;;;33.92;18.13;;;5.60;84.90;;;3.41;100.00;97297.06;4971187;28;20076;-64
2021/12/15 02:13:30;;;;;;;39.65;19.67;;;5.60;84.90;;;3.41;100.00;97288.44;4968909;28;20042;-64
2021/12/15 02:15:58;;;;;;;33.83;18.60;;;5.60;84.60;;;3.42;100.00;97290.09;4968297;28;20375;-65
2021/12/15 02:18:36;;;;;;;41.78;20.45;;;5.60;84.80;;;3.41;100.00;97284.06;4945219;28;20049;-65
2021/12/15 02:21:12;;;;;;;38.47;19.88;;;5.60;84.80;;;3.40;100.00;97287.59;4987620;28;20450;-64
2021/12/15 02:23:44;;;;;;;44.80;19.70;;;5.50;84.90;;;3.38;100.00;97289.47;4986653;28;20038;-65
2021/12/15 02:26:21;;;;;;;41.17;19.65;;;5.50;85.10;;;3.34;100.00;97281.06;4959265;28;20566;-64
2021/12/15 02:28:57;;;;;;;42.45;20.80;;;5.40;85.20;;;3.34;100.00;97277.63;4971470;28;20129;-64
2021/12/15 02:31:51;;;;;;;47.03;20.60;;;5.40;85.30;;;3.29;100.00;97278.00;4971829;28;20076;-67
2021/12/15 02:39:32;;;;;;;46.30;19.90;;;5.20;85.90;;;3.24;100.00;97271.47;4986993;28;20060;-65
2021/12/15 02:41:58;;;;;;;40.30;19.52;;;5.20;85.90;;;3.24;100.00;97290.50;4970522;28;20056;-65
2021/12/15 02:44:24;;;;;;;42.13;19.95;;;5.30;86.10;;;3.25;100.00;97283.53;4979637;28;20121;-65
2021/12/15 02:46:50;;;;;;;36.78;18.70;;;5.40;85.90;;;3.26;100.00;97280.00;4987406;28;20122;-66
2021/12/15 02:49:19;;;;;;;44.65;20.40;;;5.40;85.80;;;3.26;100.00;97275.63;4978381;28;20077;-66
2021/12/15 02:51:46;;;;;;;39.10;18.88;;;5.40;85.70;;;3.28;100.00;97275.50;4969799;28;20132;-66
2021/12/15 02:54:12;;;;;;;37.65;18.52;;;5.40;85.70;;;3.29;100.00;97269.38;4969922;28;20277;-66
2021/12/15 02:56:42;;;;;;;42.65;19.40;;;5.40;85.80;;;3.28;100.00;97265.94;4970878;28;20042;-65
2021/12/15 02:59:09;;;;;;;44.97;20.00;;;5.40;85.80;;;3.30;100.00;97276.22;4950962;28;20039;-66
2021/12/15 03:01:55;;;;;;;39.05;20.13;;;5.50;85.70;;;3.29;100.00;97274.56;4970074;28;20531;-64
2021/12/15 03:04:39;;;;;;;41.55;18.85;;;5.50;85.70;;;3.30;100.00;97278.81;4972872;28;20062;-65
2021/12/15 03:07:17;;;;;;;41.45;20.88;;;5.50;85.80;;;3.31;100.00;97283.06;4967433;28;20086;-65
2021/12/15 03:15:29;;;;;;;36.72;18.45;;;5.40;85.70;;;3.31;100.00;97293.47;4985962;28;20037;-65
2021/12/15 03:17:57;;;;;;;38.13;19.15;;;5.40;86.10;;;3.28;100.00;97296.31;4968811;28;20023;-65
2021/12/15 03:20:23;;;;;;;38.33;18.83;;;5.40;86.10;;;3.30;100.00;97284.03;4976812;28;20061;-67
2021/12/15 03:22:50;;;;;;;39.15;19.35;;;5.50;86.10;;;3.28;100.00;97289.34;4974055;28;20035;-65
2021/12/15 03:25:16;;;;;;;39.50;19.17;;;5.40;86.00;;;3.31;100.00;97289.09;4957678;28;20564;-64
2021/12/15 03:33:29;;;;;;;37.42;18.42;;;5.60;85.70;;;3.35;100.00;97284.50;4983098;28;20121;-64
2021/12/15 03:36:06;;;;;;;39.13;18.98;;;5.50;85.90;;;3.35;100.00;97284.50;4958561;28;20103;-65
2021/12/15 03:38:33;;;;;;;36.88;19.77;;;5.50;85.80;;;3.37;100.00;97287.81;4973744;28;20081;-66
2021/12/15 03:40:59;;;;;;;38.08;20.58;;;5.60;85.60;;;3.37;100.00;97291.25;4970392;28;20039;-64
2021/12/15 03:43:24;;;;;;;36.78;17.77;;;5.60;85.60;;;3.37;100.00;97283.44;4956358;28;20042;-64
2021/12/15 03:45:59;;;;;;;35.20;17.73;;;5.60;85.60;;;3.38;100.00;97290.28;4989598;28;20027;-65
2021/12/15 03:48:28;;;;;;;35.55;18.48;;;5.60;85.70;;;3.38;100.00;97289.47;4972034;28;20034;-65
2021/12/15 03:50:56;;;;;;;36.67;18.52;;;5.50;85.70;;;3.38;100.00;97297.25;4949362;28;20048;-67
2021/12/15 03:53:22;;;;;;;38.22;19.05;;;5.60;85.80;;;3.41;100.00;97291.03;4980636;28;20537;-64
2021/12/15 03:55:48;;;;;;;35.38;17.45;;;5.60;85.70;;;3.42;100.00;97293.50;4969331;28;20050;-64
2021/12/15 03:58:14;;;;;;;38.55;18.60;;;5.60;85.80;;;3.40;100.00;97285.00;4982109;28;20538;-66
2021/12/15 04:00:47;;;;;;;36.88;19.95;;;5.60;85.60;;;3.45;100.00;97292.47;4964586;28;20051;-64
2021/12/15 04:03:25;;;;;;;37.08;18.50;;;5.60;85.70;;;3.44;100.00;97296.84;4973417;28;20314;-65
2021/12/15 04:05:52;;;;;;;43.83;20.52;;;5.60;85.70;;;3.43;100.00;97300.38;4985832;28;20062;-65
2021/12/15 04:08:18;;;;;;;39.17;19.67;;;5.60;85.60;;;3.44;100.00;97299.44;4970234;28;20058;-64
2021/12/15 04:10:44;;;;;;;39.15;19.55;;;5.60;85.70;;;3.47;100.00;97304.41;4972484;28;20080;-64
2021/12/15 04:13:12;;;;;;;43.58;19.67;;;5.70;85.60;;;3.48;100.00;97306.06;4978408;28;20077;-64
2021/12/15 04:15:52;;;;;;;36.28;19.40;;;5.70;85.60;;;3.49;100.00;97305.09;4982191;28;20034;-67
2021/12/15 04:18:18;;;;;;;38.47;18.08;;;5.70;85.50;;;3.50;100.00;97298.97;4946616;28;20038;-66
2021/12/15 04:20:44;;;;;;;34.83;18.20;;;5.60;85.50;;;3.50;100.00;97301.56;4969898;28;20039;-64
2021/12/15 04:23:11;;;;;;;33.85;18.05;;;5.70;85.50;;;3.51;100.00;97310.19;4971192;28;20035;-65
2021/12/15 04:25:39;;;;;;;36.72;19.27;;;5.60;85.60;;;3.52;100.00;97310.06;4974211;28;20049;-65
2021/12/15 04:28:15;;;;;;;34.17;17.80;;;5.60;85.50;;;3.52;100.00;97312.69;4987061;28;20042;-66
2021/12/15 04:30:51;;;;;;;34.92;18.65;;;5.60;85.50;;;3.52;100.00;97304.03;4967545;28;20035;-66
2021/12/15 04:33:43;;;;;;;41.55;20.17;;;5.70;85.50;;;3.52;100.00;97307.47;4955054;28;20061;-66
2021/12/15 04:36:11;;;;;;;50.63;27.00;;;5.70;85.50;;;3.54;100.00;97305.59;4981270;28;20484;-67
2021/12/15 04:38:37;;;;;;;53.72;30.75;;;5.70;85.50;;;3.54;100.00;97316.00;4989166;28;20039;-69
2021/12/15 04:41:06;;;;;;;37.88;20.08;;;5.70;85.40;;;3.53;100.00;97314.34;4985394;28;20053;-65
2021/12/15 04:43:34;;;;;;;36.17;19.27;;;5.70;85.20;;;3.53;100.00;97300.50;4986046;28;20062;-65
2021/12/15 04:46:02;;;;;;;33.05;17.77;;;5.70;85.30;;;3.54;100.00;97307.34;4988142;28;20046;-68
2021/12/15 04:48:28;;;;;;;33.53;18.60;;;5.70;85.20;;;3.54;100.00;97302.16;4972711;28;20042;-65
2021/12/15 04:50:53;;;;;;;37.42;19.80;;;5.70;85.20;;;3.52;100.00;97302.28;4977320;28;20074;-67
2021/12/15 04:53:19;;;;;;;34.92;19.20;;;5.70;85.30;;;3.52;100.00;97310.06;4953864;28;20475;-67
2021/12/15 04:55:45;;;;;;;35.45;19.20;;;5.70;85.20;;;3.50;100.00;97313.75;4969254;28;20474;-65
2021/12/15 04:58:11;;;;;;;33.63;18.80;;;5.70;85.10;;;3.51;100.00;97320.59;4958596;28;20042;-65
2021/12/15 05:00:47;;;;;;;33.67;18.20;;;5.70;85.10;;;3.50;100.00;97314.56;4953118;28;20537;-66
2021/12/15 05:03:13;;;;;;;76.85;43.83;;;5.70;85.30;;;3.53;100.00;97316.94;4945340;28;20511;-66
2021/12/15 05:05:39;;;;;;;87.03;57.72;;;5.70;85.60;;;3.54;100.00;97326.41;4985016;28;20042;-66
2021/12/15 05:08:05;;;;;;;42.72;22.40;;;5.70;85.70;;;3.54;100.00;97313.38;4972216;28;20034;-67
2021/12/15 05:10:31;;;;;;;34.92;19.13;;;5.70;85.30;;;3.52;100.00;97317.88;4962039;28;20494;-66
2021/12/15 05:12:57;;;;;;;33.55;19.08;;;5.70;85.40;;;3.54;100.00;97331.59;4966438;28;20137;-66
2021/12/15 05:15:24;;;;;;;33.03;16.92;;;5.70;85.30;;;3.57;100.00;97320.13;4967731;28;20052;-66
2021/12/15 05:17:50;;;;;;;29.63;16.70;;;5.70;85.30;;;3.56;100.00;97324.50;4971707;28;20105;-66
2021/12/15 05:20:18;;;;;;;34.40;16.58;;;5.70;85.30;;;3.55;100.00;97325.44;4971548;28;20167;-65
2021/12/15 05:22:43;;;;;;;38.40;20.77;;;5.70;85.20;;;3.56;100.00;97328.88;4987231;28;20182;-65
2021/12/15 05:25:09;;;;;;;46.67;26.67;;;5.70;85.20;;;3.55;100.00;97341.06;4971642;28;20121;-65
2021/12/15 05:27:35;;;;;;;45.47;26.17;;;5.70;85.20;;;3.55;100.00;97330.66;4972121;28;20117;-65
2021/12/15 05:30:01;;;;;;;42.15;25.08;;;5.70;85.20;;;3.57;100.00;97339.16;4987014;28;20053;-65
2021/12/15 05:32:27;;;;;;;49.92;31.40;;;5.70;85.20;;;3.57;100.00;97346.97;4979112;28;20043;-64
2021/12/15 05:34:55;;;;;;;40.20;25.35;;;5.80;85.20;;;3.59;100.00;97339.88;4975875;28;20121;-64
2021/12/15 05:37:22;;;;;;;40.90;24.10;;;5.80;85.10;;;3.59;100.00;97347.69;4984396;28;20038;-65
2021/12/15 05:39:47;;;;;;;34.85;17.55;;;5.80;85.00;;;3.57;100.00;97348.75;4973497;28;20067;-65
2021/12/15 05:42:13;;;;;;;31.42;17.17;;;5.70;85.00;;;3.58;100.00;97358.22;4966903;28;20050;-65
2021/12/15 05:44:39;;;;;;;31.90;17.02;;;5.70;85.00;;;3.55;100.00;97351.47;4968157;28;20031;-65
2021/12/15 05:47:05;;;;;;;35.92;18.17;;;5.70;85.00;;;3.56;100.00;97360.94;4952122;28;20031;-65
2021/12/15 05:49:31;;;;;;;125.35;78.13;;;5.70;85.10;;;3.55;100.00;97359.28;4975743;28;20030;-68
2021/12/15 05:51:57;;;;;;;48.05;29.02;;;5.70;85.30;;;3.55;100.00;97364.47;4986748;28;20522;-67
2021/12/15 05:54:23;;;;;;;34.08;18.58;;;5.70;85.20;;;3.56;100.00;97366.13;4973760;28;20033;-71
2021/12/15 05:56:49;;;;;;;32.13;18.02;;;5.70;85.20;;;3.58;100.00;97368.63;4982696;28;20042;-70
2021/12/15 05:59:15;;;;;;;29.08;17.17;;;5.70;85.10;;;3.56;100.00;97368.72;4983739;28;20031;-66
2021/12/15 06:01:41;;;;;;;29.95;17.05;;;5.70;85.20;;;3.58;100.00;97376.41;4986223;28;20030;-65
2021/12/15 06:04:07;;;;;;;32.45;17.00;;;5.70;85.20;;;3.56;100.00;97379.13;4971072;28;20576;-65
2021/12/15 06:06:33;;;;;;;38.90;19.15;;;5.70;85.10;;;3.54;100.00;97383.63;4952674;28;20480;-64
2021/12/15 06:08:59;;;;;;;34.05;17.35;;;5.70;85.00;;;3.52;100.00;97390.72;4987598;28;20031;-66
2021/12/15 06:11:25;;;;;;;38.47;19.02;;;5.70;85.00;;;3.52;100.00;97390.72;4986771;28;20049;-64
2021/12/15 06:13:52;;;;;;;38.00;19.48;;;5.70;85.10;;;3.50;100.00;97395.22;4954195;28;20034;-68
2021/12/15 06:16:18;;;;;;;40.97;18.50;;;5.60;85.10;;;3.49;100.00;97396.16;4948369;28;20111;-64
2021/12/15 06:18:45;;;;;;;44.53;19.52;;;5.60;85.10;;;3.47;100.00;97403.25;4947698;28;20533;-64
2021/12/15 06:21:11;;;;;;;42.15;19.60;;;5.60;85.30;;;3.46;100.00;97399.00;4968002;28;20039;-63
2021/12/15 06:23:37;;;;;;;43.17;21.23;;;5.60;85.40;;;3.46;100.00;97405.97;4953260;28;20077;-63
2021/12/15 06:26:04;;;;;;;39.53;19.17;;;5.60;85.40;;;3.44;100.00;97398.28;4954595;28;20041;-64
2021/12/15 06:28:29;;;;;;;39.15;19.08;;;5.60;85.50;;;3.45;100.00;97404.31;4980555;28;20034;-64
2021/12/15 06:30:57;;;;;;;55.28;30.90;;;5.60;85.50;;;3.44;100.00;97398.28;4982343;28;20038;-66
2021/12/15 06:33:23;;;;;;;64.45;39.83;;;5.60;85.50;;;3.43;100.00;97407.00;4981885;28;20046;-66
2021/12/15 06:35:53;;;;;;;52.60;31.50;;;5.60;85.50;;;3.45;100.00;97405.13;4953911;28;20402;-66
2021/12/15 06:38:27;;;;;;;51.33;29.73;;;5.70;85.30;;;3.45;100.00;97418.13;4985723;28;20030;-63
2021/12/15 06:40:53;;;;;;;57.13;36.85;;;5.60;85.30;;;3.44;100.00;97419.06;4982228;28;20050;-65
2021/12/15 06:43:18;;;;;;;42.58;22.38;;;5.70;85.30;;;3.47;100.00;97424.06;4952281;28;20049;-68
2021/12/15 06:46:00;;;;;;;38.45;20.08;;;5.60;85.50;;;3.51;100.00;97432.47;4952644;28;20468;-68
2021/12/15 06:59:23;;;;;;;45.80;19.88;;;5.70;85.50;;;3.54;100.00;97440.88;4971238;28;20113;-64
2021/12/15 07:01:50;;;;;;;45.25;19.52;;;5.70;85.60;;;3.53;100.00;97431.41;4989905;28;20038;-64
2021/12/15 07:04:18;;;;;;;44.28;20.33;;;5.70;85.50;;;3.55;100.00;97437.31;4970071;28;20035;-63
2021/12/15 07:06:45;;;;;;;41.35;19.67;;;5.70;85.40;;;3.55;100.00;97437.31;4982151;28;20603;-66
2021/12/15 07:09:11;;;;;;;45.90;21.65;;;5.70;85.60;;;3.59;100.00;97432.72;4986692;28;20546;-64
2021/12/15 07:11:37;;;;;;;106.40;63.28;;;5.80;85.80;;;3.64;100.00;97435.84;4963643;28;20565;-67
2021/12/15 07:14:03;;;;;;;70.63;40.92;;;5.90;86.10;;;3.69;100.00;97444.94;4989367;28;20073;-68
2021/12/15 07:16:31;;;;;;;52.03;26.13;;;5.90;85.80;;;3.70;100.00;97440.56;4970222;28;20168;-67
2021/12/15 07:19:10;;;;;;;45.20;22.35;;;5.90;85.60;;;3.73;100.00;97444.72;4980487;28;20106;-66
2021/12/15 07:21:39;;;;;;;54.97;26.55;;;5.90;85.50;;;3.73;100.00;97445.56;4984942;28;20046;-64
2021/12/15 07:24:06;;;;;;;62.05;32.85;;;5.90;85.50;;;3.75;100.00;97446.25;4969930;28;20053;-66
2021/12/15 07:26:35;;;;;;;56.30;31.17;;;6.00;85.40;;;3.77;100.00;97448.75;4986601;28;20526;-65
2021/12/15 07:29:01;;;;;;;47.83;22.58;;;6.00;85.30;;;3.77;100.00;97446.97;4987994;28;20054;-67
2021/12/15 07:31:27;;;;;;;44.55;21.13;;;5.90;85.20;;;3.78;100.00;97453.00;4951261;28;20532;-65
2021/12/15 07:33:52;;;;;;;44.60;21.25;;;5.90;85.20;;;3.78;100.00;97459.03;4980841;28;20128;-64
2021/12/15 07:36:18;;;;;;;46.65;21.67;;;6.00;85.40;;;3.79;100.00;97465.06;4989485;28;20057;-65
2021/12/15 07:38:44;;;;;;;47.17;21.35;;;6.00;85.20;;;3.79;100.00;97465.06;4989221;28;20030;-66
2021/12/15 07:41:24;;;;;;;48.17;23.17;;;6.00;85.20;;;3.80;100.00;97467.56;4988893;28;20061;-66
2021/12/15 07:43:50;;;;;;;48.28;21.33;;;6.00;85.30;;;3.81;100.00;97473.59;4984803;28;20129;-65
2021/12/15 07:46:16;;;;;;;49.08;22.75;;;6.00;85.20;;;3.81;100.00;97478.81;4972460;28;20049;-63
2021/12/15 07:48:42;;;;;;;47.72;22.55;;;6.00;85.00;;;3.83;100.00;97495.13;4959104;28;20038;-66
2021/12/15 07:51:08;;;;;;;49.88;24.15;;;6.00;85.00;;;3.84;100.00;97483.78;4955042;28;20050;-66
2021/12/15 07:53:37;;;;;;;51.88;23.73;;;6.10;85.30;;;3.85;100.00;97485.47;4964100;28;20030;-67
2021/12/15 07:56:03;;;;;;;53.72;23.42;;;6.00;85.30;;;3.85;100.00;97488.06;4970984;28;20344;-68
2021/12/15 07:58:29;;;;;;;50.58;23.92;;;6.10;85.20;;;3.87;100.00;97491.38;4970995;28;20760;-67
2021/12/15 08:00:57;;;;;;;57.33;24.02;;;6.10;85.40;;;3.91;100.00;97495.41;5001714;28;20064;-67
2021/12/15 08:03:23;;;;;;;55.60;23.88;;;6.10;85.30;;;3.90;100.00;97492.00;4969989;28;20035;-68
2021/12/15 08:05:50;;;;;;;55.33;24.65;;;6.10;85.40;;;3.91;100.00;97490.22;4970152;28;20090;-67
2021/12/15 08:08:16;;;;;;;51.30;23.95;;;6.20;85.30;;;3.94;100.00;97490.81;4989028;28;20066;-62
2021/12/15 08:10:42;;;;;;;52.83;26.05;;;6.20;85.00;;;3.97;100.00;97494.97;4972315;28;20491;-63
2021/12/15 08:13:08;;;;;;;47.65;24.13;;;6.20;85.30;;;3.99;100.00;97498.28;4988920;28;20058;-66
2021/12/15 08:15:34;;;;;;;49.08;23.52;;;6.20;85.20;;;4.02;100.00;97497.22;4984209;28;20031;-65
2021/12/15 08:18:00;;;;;;;50.40;24.58;;;6.20;85.00;;;4.03;100.00;97494.50;4959743;28;20471;-66
2021/12/15 08:20:28;;;;;;;68.53;39.35;;;6.20;84.80;;;4.06;100.00;97496.03;4980328;28;20077;-66
2021/12/15 08:22:54;;;;;;;55.45;29.58;;;6.30;84.90;;;4.08;100.00;97499.38;4972539;28;20578;-66
2021/12/15 08:25:20;;;;;;;50.60;24.30;;;6.30;84.80;;;4.09;100.00;97499.28;4988449;28;20050;-68
2021/12/15 08:27:46;;;;;;;51.22;25.60;;;6.30;84.50;;;4.10;100.00;97500.09;4988724;28;20035;-66
2021/12/15 08:30:19;;;;;;;51.10;25.23;;;6.20;84.50;;;4.10;100.00;97500.94;4989164;28;20057;-64
2021/12/15 08:32:49;;;;;;;51.60;23.52;;;6.30;84.30;;;4.09;100.00;97499.28;4988913;28;20038;-65
2021/12/15 08:35:17;;;;;;;54.22;24.08;;;6.30;84.40;;;4.09;100.00;97496.66;4996811;28;20101;-64
2021/12/15 08:37:42;;;;;;;49.00;23.63;;;6.30;84.20;;;4.09;100.00;97498.44;4969843;28;20142;-69
2021/12/15 08:40:09;;;;;;;46.58;21.73;;;6.20;84.10;;;4.07;100.00;97493.31;4971119;28;20059;-69
2021/12/15 08:42:35;;;;;;;45.88;21.80;;;6.20;84.20;;;4.08;100.00;97504.59;4979429;28;20023;-69
2021/12/15 08:45:01;;;;;;;47.45;22.17;;;6.30;84.10;;;4.10;100.00;97505.31;4985340;28;20050;-66
2021/12/15 08:47:26;;;;;;;47.72;23.02;;;6.30;84.10;;;4.12;100.00;97509.44;4957395;28;20594;-67
2021/12/15 08:49:53;;;;;;;49.78;22.80;;;6.30;84.00;;;4.14;100.00;97507.56;4968851;28;20055;-67
2021/12/15 08:52:18;;;;;;;45.75;23.80;;;6.40;84.00;;;4.16;100.00;97505.66;4986917;28;20121;-63
2021/12/15 08:54:44;;;;;;;50.70;23.58;;;6.40;84.00;;;4.19;100.00;97507.22;4988383;28;20040;-65
2021/12/15 08:57:10;;;;;;;50.13;22.60;;;6.40;83.90;;;4.18;100.00;97506.38;4968651;28;20043;-66
2021/12/15 08:59:36;;;;;;;49.53;22.75;;;6.40;83.90;;;4.19;100.00;97505.44;4953397;28;20035;-65
2021/12/15 09:02:02;;;;;;;49.63;23.73;;;6.40;83.90;;;4.21;100.00;97508.75;4983265;28;20034;-65
2021/12/15 09:04:27;;;;;;;46.15;22.38;;;6.50;83.70;;;4.23;100.00;97509.47;4983966;28;20249;-66
2021/12/15 09:06:54;;;;;;;46.20;22.30;;;6.40;83.70;;;4.25;100.00;97510.19;4984361;28;21064;-65
2021/12/15 09:09:20;;;;;;;44.75;22.08;;;6.50;83.70;;;4.27;100.00;97512.66;4987574;28;20049;-66
2021/12/15 09:11:48;;;;;;;44.08;22.85;;;6.50;83.50;;;4.27;100.00;97508.28;4984138;28;20034;-67
2021/12/15 09:14:13;;;;;;;44.15;21.20;;;6.50;83.50;;;4.33;100.00;97500.97;4952176;28;20081;-64
2021/12/15 09:16:40;;;;;;;41.80;20.70;;;6.60;83.60;;;4.37;100.00;97507.63;4971382;28;20557;-65
2021/12/15 09:19:06;;;;;;;39.30;20.00;;;6.60;83.40;;;4.37;100.00;97510.22;4961016;28;20046;-65
2021/12/15 09:21:33;;;;;;;34.53;19.30;;;6.60;83.20;;;4.40;100.00;97503.00;4998525;28;20162;-67
2021/12/15 09:23:59;;;;;;;34.92;19.08;;;6.60;83.20;;;4.43;100.00;97517.56;4952399;28;20525;-66
2021/12/15 09:26:25;;;;;;;34.20;17.80;;;6.70;83.20;;;4.43;100.00;97507.13;4953635;28;20424;-68
2021/12/15 09:28:51;;;;;;;32.85;19.02;;;6.70;82.90;;;4.46;100.00;97512.13;4985876;28;20041;-66
2021/12/15 09:31:17;;;;;;;32.42;17.95;;;6.70;83.00;;;4.49;100.00;97517.09;4987029;28;20050;-64
2021/12/15 09:33:44;;;;;;;32.10;18.00;;;6.70;82.90;;;4.50;100.00;97513.53;4971981;28;20461;-64
2021/12/15 09:36:12;;;;;;;34.67;19.83;;;6.70;83.00;;;4.53;100.00;97519.38;5007372;28;20378;-70
2021/12/15 09:38:38;;;;;;;36.65;18.58;;;6.70;83.00;;;4.53;100.00;97508.94;4970082;28;20557;-63
2021/12/15 09:41:07;;;;;;;35.13;19.25;;;6.80;83.00;;;4.55;100.00;97511.44;4968727;28;20126;-64
2021/12/15 09:43:34;;;;;;;34.35;17.42;;;6.70;82.80;;;4.54;100.00;97510.59;4971387;28;20035;-68
2021/12/15 09:46:10;;;;;;;29.00;18.15;;;6.80;82.80;;;4.57;100.00;97501.72;4988575;28;20046;-63
2021/12/15 10:02:44;;;;;;;30.83;17.90;;;6.90;82.80;;;4.66;99.92;97503.59;4977437;28;20085;-65
2021/12/15 10:11:09;;;;;;;40.72;24.15;;;7.10;83.20;;;4.79;100.00;97499.13;4968195;28;20493;-65
2021/12/15 10:19:25;;;;;;;31.63;18.67;;;7.00;82.50;;;4.81;99.92;97491.19;4987474;28;20037;-66
2021/12/15 10:22:28;;;;;;;33.20;18.52;;;7.00;82.20;;;4.85;99.99;97493.44;4983705;28;20422;-66
2021/12/15 10:25:20;;;;;;;31.35;17.67;;;7.10;82.20;;;4.85;100.00;97493.44;4985481;28;20034;-65
2021/12/15 10:27:54;;;;;;;30.23;17.70;;;7.10;82.20;;;4.89;99.96;97484.41;4958108;28;20065;-65
2021/12/15 10:30:31;;;;;;;26.92;16.60;;;7.10;82.00;;;4.93;99.83;97482.38;4968182;28;20054;-66
2021/12/15 10:33:04;;;;;;;28.77;17.67;;;7.20;82.00;;;4.96;98.96;97489.13;4985455;28;20423;-66
2021/12/15 10:35:41;;;;;;;30.75;17.25;;;7.20;81.30;;;4.99;98.97;97488.94;4983511;28;20097;-66
2021/12/15 10:38:21;;;;;;;30.17;18.40;;;7.20;81.30;;;5.02;98.30;97488.69;4977679;28;20045;-68
2021/12/15 10:41:22;;;;;;;28.83;17.92;;;7.30;81.20;;;5.05;98.38;97480.63;4990632;28;20030;-65
2021/12/15 10:43:57;;;;;;;26.65;15.00;;;7.20;81.20;;;5.03;98.39;97470.31;4976260;28;20038;-68
2021/12/15 10:46:37;;;;;;;27.00;16.63;;;7.30;81.00;;;5.05;97.77;97472.78;4969218;28;20157;-67
2021/12/15 10:49:08;;;;;;;26.90;17.27;;;7.30;81.00;;;5.07;98.30;97481.31;4953485;28;20059;-67
2021/12/15 10:51:43;;;;;;;26.77;15.80;;;7.30;81.20;;;5.08;97.63;97478.59;4957143;28;20125;-63
2021/12/15 10:54:33;;;;;;;26.40;17.52;;;7.40;80.90;;;5.10;97.14;97466.25;4981895;28;20106;-69
2021/12/15 10:57:01;;;;;;;27.73;18.45;;;7.30;80.80;;;5.13;98.37;97476.44;4976718;28;20133;-68
2021/12/15 10:59:30;;;;;;;26.52;16.48;;;7.40;80.80;;;5.16;97.65;97470.16;4984450;28;20414;-68
2021/12/15 11:02:06;;;;;;;24.33;16.75;;;7.40;80.80;;;5.16;97.38;97470.97;4966045;28;20101;-64
2021/12/15 11:04:40;;;;;;;25.23;17.92;;;7.40;80.70;;;5.16;97.37;97470.97;4967961;28;20035;-70
2021/12/15 11:07:32;;;;;;;29.33;18.02;;;7.40;80.50;;;5.18;96.16;97465.63;4970094;28;20038;-64
2021/12/15 11:10:31;;;;;;;25.10;17.13;;;7.40;80.60;;;5.19;96.68;97459.47;4984128;28;20674;-64
2021/12/15 11:13:08;;;;;;;25.02;18.30;;;7.40;80.20;;;5.20;95.81;97461.13;4987980;28;20030;-65
2021/12/15 11:15:46;;;;;;;25.45;16.92;;;7.40;79.90;;;5.19;95.57;97465.50;4967041;28;20043;-66
2021/12/15 11:18:23;;;;;;;26.58;19.17;;;7.40;80.00;;;5.21;96.31;97462.81;4986052;28;20096;-66
2021/12/15 11:20:50;;;;;;;29.98;18.55;;;7.40;80.10;;;5.21;96.12;97463.63;4983513;28;20030;-65
2021/12/15 11:23:20;;;;;;;28.40;19.42;;;7.40;80.20;;;5.21;96.22;97457.59;4978191;28;20177;-64
2021/12/15 11:25:50;;;;;;;29.47;20.90;;;7.40;80.10;;;5.23;96.08;97455.69;4982596;28;20039;-63